sensor_id;sensor_type;location;lat;lon;timestamp;P1;durP1;ratioP1;P2;durP2;ratioP2
39674;SDS011;27790;50.840;4.386;2024-03-23T00:55:39;14.50;;;3.22;;
39674;SDS011;27790;50.840;4.386;2024-03-23T00:58:05;9.30;;;3.13;;
39674;SDS011;27790;50.840;4.386;2024-03-23T01:00:31;11.23;;;2.75;;
39674;SDS011;27790;50.840;4.386;2024-03-23T01:02:56;13.15;;;4.30;;
39674;SDS011;27790;50.840;4.386;2024-03-23T01:05:22;12.00;;;3.65;;
39674;SDS011;27790;50.840;4.386;2024-03-23T01:07:47;14.52;;;3.10;;
39674;SDS011;27790;50.840;4.386;2024-03-23T01:10:13;11.52;;;3.25;;
39674;SDS011;27790;50.840;4.386;2024-03-23T01:12:38;14.30;;;3.97;;
39674;SDS011;27790;50.840;4.386;2024-03-23T01:15:04;17.05;;;3.90;;
39674;SDS011;27790;50.840;4.386;2024-03-23T01:17:30;16.25;;;3.30;;
39674;SDS011;27790;50.840;4.386;2024-03-23T01:19:55;10.68;;;2.95;;
39674;SDS011;27790;50.840;4.386;2024-03-23T01:22:21;12.73;;;3.13;;
39674;SDS011;27790;50.840;4.386;2024-03-23T01:24:46;10.05;;;3.97;;
39674;SDS011;27790;50.840;4.386;2024-03-23T01:27:12;14.45;;;3.70;;
39674;SDS011;27790;50.840;4.386;2024-03-23T01:29:38;12.02;;;3.33;;
39674;SDS011;27790;50.840;4.386;2024-03-23T01:32:04;15.30;;;3.50;;
39674;SDS011;27790;50.840;4.386;2024-03-23T01:34:30;11.77;;;4.18;;
39674;SDS011;27790;50.840;4.386;2024-03-23T01:36:55;12.32;;;4.03;;
39674;SDS011;27790;50.840;4.386;2024-03-23T01:39:21;10.73;;;4.65;;
39674;SDS011;27790;50.840;4.386;2024-03-23T01:41:46;13.52;;;4.28;;
39674;SDS011;27790;50.840;4.386;2024-03-23T01:44:12;27.55;;;5.50;;
39674;SDS011;27790;50.840;4.386;2024-03-23T01:46:38;10.90;;;4.72;;
39674;SDS011;27790;50.840;4.386;2024-03-23T01:49:06;14.77;;;4.63;;
39674;SDS011;27790;50.840;4.386;2024-03-23T01:51:32;14.52;;;4.80;;
39674;SDS011;27790;50.840;4.386;2024-03-23T01:53:58;20.58;;;5.30;;
39674;SDS011;27790;50.840;4.386;2024-03-23T01:56:28;20.75;;;6.38;;
39674;SDS011;27790;50.840;4.386;2024-03-23T01:58:58;9.98;;;5.72;;
39674;SDS011;27790;50.840;4.386;2024-03-23T02:01:24;15.20;;;5.57;;
39674;SDS011;27790;50.840;4.386;2024-03-23T02:03:50;17.05;;;6.05;;
39674;SDS011;27790;50.840;4.386;2024-03-23T02:06:15;17.52;;;5.95;;
39674;SDS011;27790;50.840;4.386;2024-03-23T02:08:41;13.57;;;5.25;;
39674;SDS011;27790;50.840;4.386;2024-03-23T02:11:07;18.10;;;6.00;;
39674;SDS011;27790;50.840;4.386;2024-03-23T02:13:33;22.00;;;5.97;;
39674;SDS011;27790;50.840;4.386;2024-03-23T02:15:59;16.63;;;6.22;;
39674;SDS011;27790;50.840;4.386;2024-03-23T02:18:24;21.48;;;6.72;;
39674;SDS011;27790;50.840;4.386;2024-03-23T02:20:50;19.38;;;5.75;;
39674;SDS011;27790;50.840;4.386;2024-03-23T02:23:15;18.67;;;6.45;;
39674;SDS011;27790;50.840;4.386;2024-03-23T02:25:43;13.98;;;6.70;;
39674;SDS011;27790;50.840;4.386;2024-03-23T02:28:09;14.68;;;7.47;;
39674;SDS011;27790;50.840;4.386;2024-03-23T02:30:35;15.48;;;6.50;;
39674;SDS011;27790;50.840;4.386;2024-03-23T02:33:00;21.67;;;7.32;;
39674;SDS011;27790;50.840;4.386;2024-03-23T02:35:26;19.90;;;7.00;;
39674;SDS011;27790;50.840;4.386;2024-03-23T02:37:51;22.05;;;7.10;;
39674;SDS011;27790;50.840;4.386;2024-03-23T02:40:20;19.15;;;7.47;;
39674;SDS011;27790;50.840;4.386;2024-03-23T02:42:45;15.45;;;7.75;;
39674;SDS011;27790;50.840;4.386;2024-03-23T02:45:11;20.67;;;8.18;;
39674;SDS011;27790;50.840;4.386;2024-03-23T02:47:37;28.08;;;8.68;;
39674;SDS011;27790;50.840;4.386;2024-03-23T02:50:02;22.02;;;7.30;;
39674;SDS011;27790;50.840;4.386;2024-03-23T02:52:29;19.20;;;7.10;;
39674;SDS011;27790;50.840;4.386;2024-03-23T02:54:54;17.17;;;7.63;;
39674;SDS011;27790;50.840;4.386;2024-03-23T02:57:20;15.50;;;7.60;;
39674;SDS011;27790;50.840;4.386;2024-03-23T02:59:46;23.02;;;7.63;;
39674;SDS011;27790;50.840;4.386;2024-03-23T03:02:12;23.85;;;7.97;;
39674;SDS011;27790;50.840;4.386;2024-03-23T03:04:38;21.63;;;8.23;;
39674;SDS011;27790;50.840;4.386;2024-03-23T03:07:04;13.85;;;6.88;;
39674;SDS011;27790;50.840;4.386;2024-03-23T03:09:29;26.73;;;8.32;;
39674;SDS011;27790;50.840;4.386;2024-03-23T03:11:55;24.13;;;7.47;;
39674;SDS011;27790;50.840;4.386;2024-03-23T03:14:21;26.00;;;7.43;;
39674;SDS011;27790;50.840;4.386;2024-03-23T03:16:46;22.20;;;8.32;;
39674;SDS011;27790;50.840;4.386;2024-03-23T03:19:12;15.10;;;6.97;;
39674;SDS011;27790;50.840;4.386;2024-03-23T03:21:37;18.60;;;8.40;;
39674;SDS011;27790;50.840;4.386;2024-03-23T03:24:03;17.70;;;7.45;;
39674;SDS011;27790;50.840;4.386;2024-03-23T03:26:31;18.60;;;8.68;;
39674;SDS011;27790;50.840;4.386;2024-03-23T03:28:57;25.05;;;9.27;;
39674;SDS011;27790;50.840;4.386;2024-03-23T03:33:52;26.88;;;8.95;;
39674;SDS011;27790;50.840;4.386;2024-03-23T03:36:18;19.75;;;7.97;;
39674;SDS011;27790;50.840;4.386;2024-03-23T03:38:44;25.45;;;7.68;;
39674;SDS011;27790;50.840;4.386;2024-03-23T03:41:09;19.83;;;7.60;;
39674;SDS011;27790;50.840;4.386;2024-03-23T03:43:35;26.05;;;8.32;;
39674;SDS011;27790;50.840;4.386;2024-03-23T03:46:00;24.45;;;9.20;;
39674;SDS011;27790;50.840;4.386;2024-03-23T03:48:27;23.55;;;8.70;;
39674;SDS011;27790;50.840;4.386;2024-03-23T03:50:53;22.67;;;8.52;;
39674;SDS011;27790;50.840;4.386;2024-03-23T03:53:19;25.70;;;9.32;;
39674;SDS011;27790;50.840;4.386;2024-03-23T03:55:45;33.58;;;9.32;;
39674;SDS011;27790;50.840;4.386;2024-03-23T03:58:10;26.95;;;9.02;;
39674;SDS011;27790;50.840;4.386;2024-03-23T04:00:36;22.92;;;9.60;;
39674;SDS011;27790;50.840;4.386;2024-03-23T04:03:02;27.90;;;8.82;;
39674;SDS011;27790;50.840;4.386;2024-03-23T04:05:27;22.77;;;10.30;;
39674;SDS011;27790;50.840;4.386;2024-03-23T04:07:53;20.55;;;9.10;;
39674;SDS011;27790;50.840;4.386;2024-03-23T04:10:19;27.02;;;9.50;;
39674;SDS011;27790;50.840;4.386;2024-03-23T04:12:45;19.98;;;8.23;;
39674;SDS011;27790;50.840;4.386;2024-03-23T04:15:11;21.27;;;8.63;;
39674;SDS011;27790;50.840;4.386;2024-03-23T04:17:36;17.02;;;8.63;;
39674;SDS011;27790;50.840;4.386;2024-03-23T04:20:02;24.35;;;9.18;;
39674;SDS011;27790;50.840;4.386;2024-03-23T04:22:33;20.35;;;7.13;;
39674;SDS011;27790;50.840;4.386;2024-03-23T04:24:58;22.58;;;7.13;;
39674;SDS011;27790;50.840;4.386;2024-03-23T04:27:24;27.90;;;7.20;;
39674;SDS011;27790;50.840;4.386;2024-03-23T04:29:50;13.00;;;5.95;;
39674;SDS011;27790;50.840;4.386;2024-03-23T04:32:15;14.63;;;5.57;;
39674;SDS011;27790;50.840;4.386;2024-03-23T04:34:41;17.30;;;5.43;;
39674;SDS011;27790;50.840;4.386;2024-03-23T04:37:08;21.52;;;7.47;;
39674;SDS011;27790;50.840;4.386;2024-03-23T04:39:35;14.73;;;6.50;;
39674;SDS011;27790;50.840;4.386;2024-03-23T04:42:01;28.98;;;5.95;;
39674;SDS011;27790;50.840;4.386;2024-03-23T04:44:27;14.45;;;5.60;;
39674;SDS011;27790;50.840;4.386;2024-03-23T04:46:53;12.30;;;5.97;;
39674;SDS011;27790;50.840;4.386;2024-03-23T04:49:19;14.60;;;5.55;;
39674;SDS011;27790;50.840;4.386;2024-03-23T04:51:44;19.55;;;5.45;;
39674;SDS011;27790;50.840;4.386;2024-03-23T04:54:14;10.77;;;5.25;;
39674;SDS011;27790;50.840;4.386;2024-03-23T04:56:40;14.55;;;6.65;;
39674;SDS011;27790;50.840;4.386;2024-03-23T04:59:06;24.17;;;6.20;;
39674;SDS011;27790;50.840;4.386;2024-03-23T05:04:01;12.75;;;5.72;;
39674;SDS011;27790;50.840;4.386;2024-03-23T05:06:27;19.33;;;6.25;;
39674;SDS011;27790;50.840;4.386;2024-03-23T05:08:52;24.52;;;6.68;;
39674;SDS011;27790;50.840;4.386;2024-03-23T05:11:18;16.45;;;5.25;;
39674;SDS011;27790;50.840;4.386;2024-03-23T05:13:44;11.52;;;5.30;;
39674;SDS011;27790;50.840;4.386;2024-03-23T05:16:10;17.75;;;6.05;;
39674;SDS011;27790;50.840;4.386;2024-03-23T05:18:36;16.25;;;6.18;;
39674;SDS011;27790;50.840;4.386;2024-03-23T05:21:02;15.18;;;6.00;;
39674;SDS011;27790;50.840;4.386;2024-03-23T05:23:28;17.10;;;5.72;;
39674;SDS011;27790;50.840;4.386;2024-03-23T05:25:54;16.67;;;5.45;;
39674;SDS011;27790;50.840;4.386;2024-03-23T05:28:23;14.65;;;6.00;;
39674;SDS011;27790;50.840;4.386;2024-03-23T05:30:55;15.18;;;5.65;;
39674;SDS011;27790;50.840;4.386;2024-03-23T05:33:21;18.17;;;6.25;;
39674;SDS011;27790;50.840;4.386;2024-03-23T05:35:47;15.43;;;5.25;;
39674;SDS011;27790;50.840;4.386;2024-03-23T05:38:22;16.90;;;5.35;;
39674;SDS011;27790;50.840;4.386;2024-03-23T05:40:54;8.73;;;4.75;;
39674;SDS011;27790;50.840;4.386;2024-03-23T05:43:24;11.18;;;4.28;;
39674;SDS011;27790;50.840;4.386;2024-03-23T05:45:56;16.13;;;4.85;;
39674;SDS011;27790;50.840;4.386;2024-03-23T05:48:22;15.03;;;5.47;;
39674;SDS011;27790;50.840;4.386;2024-03-23T05:50:49;16.77;;;5.35;;
39674;SDS011;27790;50.840;4.386;2024-03-23T05:53:15;12.75;;;4.70;;
39674;SDS011;27790;50.840;4.386;2024-03-23T05:55:41;13.35;;;4.40;;
39674;SDS011;27790;50.840;4.386;2024-03-23T05:58:07;14.95;;;5.13;;
39674;SDS011;27790;50.840;4.386;2024-03-23T06:00:32;8.80;;;4.13;;
39674;SDS011;27790;50.840;4.386;2024-03-23T06:02:58;12.57;;;4.20;;
39674;SDS011;27790;50.840;4.386;2024-03-23T06:05:23;9.20;;;3.38;;
39674;SDS011;27790;50.840;4.386;2024-03-23T06:07:49;11.40;;;3.45;;
39674;SDS011;27790;50.840;4.386;2024-03-23T06:10:15;10.30;;;3.47;;
39674;SDS011;27790;50.840;4.386;2024-03-23T06:12:40;11.75;;;3.42;;
39674;SDS011;27790;50.840;4.386;2024-03-23T06:15:06;15.65;;;4.10;;
39674;SDS011;27790;50.840;4.386;2024-03-23T06:17:35;14.50;;;2.60;;
39674;SDS011;27790;50.840;4.386;2024-03-23T06:20:01;13.88;;;3.10;;
39674;SDS011;27790;50.840;4.386;2024-03-23T06:22:27;10.50;;;2.72;;
39674;SDS011;27790;50.840;4.386;2024-03-23T06:24:52;18.23;;;2.60;;
39674;SDS011;27790;50.840;4.386;2024-03-23T06:27:18;21.42;;;4.20;;
39674;SDS011;27790;50.840;4.386;2024-03-23T06:29:44;10.27;;;2.38;;
39674;SDS011;27790;50.840;4.386;2024-03-23T06:32:09;15.02;;;3.22;;
39674;SDS011;27790;50.840;4.386;2024-03-23T06:34:35;14.27;;;3.10;;
39674;SDS011;27790;50.840;4.386;2024-03-23T06:37:00;13.85;;;2.58;;
39674;SDS011;27790;50.840;4.386;2024-03-23T06:39:26;9.52;;;3.22;;
39674;SDS011;27790;50.840;4.386;2024-03-23T06:41:52;12.05;;;2.85;;
39674;SDS011;27790;50.840;4.386;2024-03-23T06:44:18;9.75;;;3.75;;
39674;SDS011;27790;50.840;4.386;2024-03-23T06:46:44;12.15;;;2.75;;
39674;SDS011;27790;50.840;4.386;2024-03-23T06:49:10;10.60;;;2.75;;
39674;SDS011;27790;50.840;4.386;2024-03-23T06:51:36;20.63;;;3.97;;
39674;SDS011;27790;50.840;4.386;2024-03-23T06:54:03;13.98;;;2.47;;
39674;SDS011;27790;50.840;4.386;2024-03-23T06:56:28;10.60;;;3.10;;
39674;SDS011;27790;50.840;4.386;2024-03-23T06:58:54;8.88;;;2.88;;
39674;SDS011;27790;50.840;4.386;2024-03-23T07:01:20;17.00;;;4.22;;
39674;SDS011;27790;50.840;4.386;2024-03-23T07:03:46;13.38;;;3.08;;
39674;SDS011;27790;50.840;4.386;2024-03-23T07:06:11;21.50;;;3.28;;
39674;SDS011;27790;50.840;4.386;2024-03-23T07:08:37;14.80;;;3.22;;
39674;SDS011;27790;50.840;4.386;2024-03-23T07:11:03;9.02;;;1.98;;
39674;SDS011;27790;50.840;4.386;2024-03-23T07:13:29;8.15;;;2.17;;
39674;SDS011;27790;50.840;4.386;2024-03-23T07:15:55;9.85;;;2.50;;
39674;SDS011;27790;50.840;4.386;2024-03-23T07:18:22;7.03;;;2.05;;
39674;SDS011;27790;50.840;4.386;2024-03-23T07:20:57;4.88;;;2.08;;
39674;SDS011;27790;50.840;4.386;2024-03-23T07:23:24;11.30;;;3.00;;
39674;SDS011;27790;50.840;4.386;2024-03-23T07:25:56;15.63;;;4.10;;
39674;SDS011;27790;50.840;4.386;2024-03-23T07:28:25;11.55;;;4.22;;
39674;SDS011;27790;50.840;4.386;2024-03-23T07:31:04;11.85;;;2.90;;
39674;SDS011;27790;50.840;4.386;2024-03-23T07:33:30;14.07;;;3.67;;
39674;SDS011;27790;50.840;4.386;2024-03-23T07:35:56;13.70;;;4.03;;
39674;SDS011;27790;50.840;4.386;2024-03-23T07:38:23;12.50;;;3.22;;
39674;SDS011;27790;50.840;4.386;2024-03-23T07:40:48;9.82;;;2.50;;
39674;SDS011;27790;50.840;4.386;2024-03-23T07:43:21;9.48;;;3.63;;
39674;SDS011;27790;50.840;4.386;2024-03-23T07:45:53;15.18;;;3.08;;
39674;SDS011;27790;50.840;4.386;2024-03-23T07:48:21;9.15;;;2.22;;
39674;SDS011;27790;50.840;4.386;2024-03-23T07:53:45;14.07;;;2.95;;
39674;SDS011;27790;50.840;4.386;2024-03-23T07:56:14;14.18;;;3.22;;
39674;SDS011;27790;50.840;4.386;2024-03-23T07:58:40;12.50;;;3.30;;
39674;SDS011;27790;50.840;4.386;2024-03-23T08:01:07;15.85;;;3.33;;
39674;SDS011;27790;50.840;4.386;2024-03-23T08:03:34;11.88;;;3.08;;
39674;SDS011;27790;50.840;4.386;2024-03-23T08:06:06;20.13;;;3.92;;
39674;SDS011;27790;50.840;4.386;2024-03-23T08:08:32;14.52;;;3.28;;
39674;SDS011;27790;50.840;4.386;2024-03-23T08:10:58;20.95;;;3.00;;
39674;SDS011;27790;50.840;4.386;2024-03-23T08:13:23;10.30;;;2.50;;
39674;SDS011;27790;50.840;4.386;2024-03-23T08:15:49;10.35;;;2.50;;
39674;SDS011;27790;50.840;4.386;2024-03-23T08:18:14;13.23;;;3.17;;
39674;SDS011;27790;50.840;4.386;2024-03-23T08:20:40;31.80;;;4.43;;
39674;SDS011;27790;50.840;4.386;2024-03-23T08:23:06;9.93;;;2.78;;
39674;SDS011;27790;50.840;4.386;2024-03-23T08:25:32;14.07;;;3.55;;
39674;SDS011;27790;50.840;4.386;2024-03-23T08:27:58;7.68;;;2.67;;
39674;SDS011;27790;50.840;4.386;2024-03-23T08:30:24;11.18;;;2.72;;
39674;SDS011;27790;50.840;4.386;2024-03-23T08:32:50;9.25;;;2.40;;
39674;SDS011;27790;50.840;4.386;2024-03-23T08:35:15;14.73;;;3.40;;
39674;SDS011;27790;50.840;4.386;2024-03-23T08:37:41;14.15;;;4.82;;
39674;SDS011;27790;50.840;4.386;2024-03-23T08:40:07;22.77;;;3.38;;
39674;SDS011;27790;50.840;4.386;2024-03-23T08:42:33;12.05;;;2.83;;
39674;SDS011;27790;50.840;4.386;2024-03-23T08:44:59;18.60;;;3.70;;
39674;SDS011;27790;50.840;4.386;2024-03-23T08:47:25;8.77;;;3.17;;
39674;SDS011;27790;50.840;4.386;2024-03-23T08:49:50;10.90;;;3.10;;
39674;SDS011;27790;50.840;4.386;2024-03-23T08:52:16;9.52;;;2.72;;
39674;SDS011;27790;50.840;4.386;2024-03-23T08:54:41;9.40;;;3.45;;
39674;SDS011;27790;50.840;4.386;2024-03-23T08:57:07;10.35;;;2.25;;
39674;SDS011;27790;50.840;4.386;2024-03-23T08:59:33;10.13;;;2.95;;
39674;SDS011;27790;50.840;4.386;2024-03-23T09:01:59;12.80;;;2.63;;
39674;SDS011;27790;50.840;4.386;2024-03-23T09:04:25;10.75;;;2.33;;
39674;SDS011;27790;50.840;4.386;2024-03-23T09:06:51;10.00;;;3.25;;
39674;SDS011;27790;50.840;4.386;2024-03-23T09:09:16;10.02;;;2.42;;
39674;SDS011;27790;50.840;4.386;2024-03-23T09:11:42;10.60;;;2.83;;
39674;SDS011;27790;50.840;4.386;2024-03-23T09:14:08;12.90;;;2.97;;
39674;SDS011;27790;50.840;4.386;2024-03-23T09:16:34;14.48;;;2.20;;
39674;SDS011;27790;50.840;4.386;2024-03-23T09:19:00;5.82;;;2.40;;
39674;SDS011;27790;50.840;4.386;2024-03-23T09:21:25;9.23;;;2.65;;
39674;SDS011;27790;50.840;4.386;2024-03-23T09:23:51;8.15;;;2.85;;
39674;SDS011;27790;50.840;4.386;2024-03-23T09:26:16;6.93;;;2.45;;
39674;SDS011;27790;50.840;4.386;2024-03-23T09:28:42;7.47;;;2.80;;
39674;SDS011;27790;50.840;4.386;2024-03-23T09:31:08;18.45;;;3.28;;
39674;SDS011;27790;50.840;4.386;2024-03-23T09:33:36;10.82;;;2.85;;
39674;SDS011;27790;50.840;4.386;2024-03-23T09:36:05;8.20;;;2.55;;
39674;SDS011;27790;50.840;4.386;2024-03-23T09:38:31;9.27;;;2.30;;
39674;SDS011;27790;50.840;4.386;2024-03-23T09:40:57;5.88;;;2.13;;
39674;SDS011;27790;50.840;4.386;2024-03-23T09:43:24;13.57;;;3.08;;
39674;SDS011;27790;50.840;4.386;2024-03-23T09:45:50;8.60;;;3.08;;
39674;SDS011;27790;50.840;4.386;2024-03-23T09:48:16;12.07;;;2.70;;
39674;SDS011;27790;50.840;4.386;2024-03-23T09:50:43;8.27;;;2.50;;
39674;SDS011;27790;50.840;4.386;2024-03-23T09:53:09;9.88;;;3.47;;
39674;SDS011;27790;50.840;4.386;2024-03-23T09:55:36;8.48;;;3.03;;
39674;SDS011;27790;50.840;4.386;2024-03-23T09:58:03;7.65;;;2.15;;
39674;SDS011;27790;50.840;4.386;2024-03-23T10:00:30;14.68;;;2.65;;
39674;SDS011;27790;50.840;4.386;2024-03-23T10:02:59;6.32;;;2.13;;
39674;SDS011;27790;50.840;4.386;2024-03-23T10:05:27;5.20;;;2.08;;
39674;SDS011;27790;50.840;4.386;2024-03-23T10:07:53;9.80;;;2.20;;
39674;SDS011;27790;50.840;4.386;2024-03-23T10:10:19;5.32;;;2.35;;
39674;SDS011;27790;50.840;4.386;2024-03-23T10:12:46;9.05;;;2.22;;
39674;SDS011;27790;50.840;4.386;2024-03-23T10:15:24;8.32;;;2.72;;
39674;SDS011;27790;50.840;4.386;2024-03-23T10:17:50;10.68;;;2.90;;
39674;SDS011;27790;50.840;4.386;2024-03-23T10:20:20;8.10;;;2.83;;
39674;SDS011;27790;50.840;4.386;2024-03-23T10:22:50;6.72;;;2.90;;
39674;SDS011;27790;50.840;4.386;2024-03-23T10:25:22;10.77;;;3.25;;
39674;SDS011;27790;50.840;4.386;2024-03-23T10:28:00;7.72;;;2.75;;
39674;SDS011;27790;50.840;4.386;2024-03-23T10:30:26;8.80;;;2.30;;
39674;SDS011;27790;50.840;4.386;2024-03-23T10:33:06;8.27;;;2.20;;
39674;SDS011;27790;50.840;4.386;2024-03-23T10:35:38;7.13;;;2.10;;
39674;SDS011;27790;50.840;4.386;2024-03-23T10:38:04;5.80;;;2.53;;
39674;SDS011;27790;50.840;4.386;2024-03-23T10:40:31;12.68;;;2.60;;
39674;SDS011;27790;50.840;4.386;2024-03-23T10:42:59;4.90;;;1.80;;
39674;SDS011;27790;50.840;4.386;2024-03-23T10:45:25;7.63;;;1.83;;
39674;SDS011;27790;50.840;4.386;2024-03-23T10:47:51;9.50;;;1.95;;
39674;SDS011;27790;50.840;4.386;2024-03-23T10:50:17;7.13;;;2.00;;
39674;SDS011;27790;50.840;4.386;2024-03-23T10:52:44;7.60;;;1.70;;
39674;SDS011;27790;50.840;4.386;2024-03-23T10:55:12;4.38;;;1.67;;
39674;SDS011;27790;50.840;4.386;2024-03-23T10:57:44;9.98;;;2.85;;
39674;SDS011;27790;50.840;4.386;2024-03-23T11:00:19;8.48;;;1.80;;
39674;SDS011;27790;50.840;4.386;2024-03-23T11:02:46;10.98;;;2.15;;
39674;SDS011;27790;50.840;4.386;2024-03-23T11:07:55;6.85;;;1.98;;
39674;SDS011;27790;50.840;4.386;2024-03-23T11:10:24;7.03;;;1.92;;
39674;SDS011;27790;50.840;4.386;2024-03-23T11:12:51;4.50;;;1.20;;
39674;SDS011;27790;50.840;4.386;2024-03-23T11:15:17;7.30;;;1.80;;
39674;SDS011;27790;50.840;4.386;2024-03-23T11:17:47;4.70;;;1.20;;
39674;SDS011;27790;50.840;4.386;2024-03-23T11:20:33;5.70;;;1.38;;
39674;SDS011;27790;50.840;4.386;2024-03-23T11:23:02;5.97;;;2.00;;
39674;SDS011;27790;50.840;4.386;2024-03-23T11:25:28;4.60;;;1.10;;
39674;SDS011;27790;50.840;4.386;2024-03-23T11:27:58;3.10;;;1.27;;
39674;SDS011;27790;50.840;4.386;2024-03-23T11:30:44;8.10;;;1.70;;
39674;SDS011;27790;50.840;4.386;2024-03-23T11:33:09;4.40;;;1.58;;
39674;SDS011;27790;50.840;4.386;2024-03-23T11:35:38;5.15;;;1.15;;
39674;SDS011;27790;50.840;4.386;2024-03-23T11:38:08;6.57;;;1.73;;
39674;SDS011;27790;50.840;4.386;2024-03-23T11:40:41;6.63;;;1.40;;
39674;SDS011;27790;50.840;4.386;2024-03-23T11:43:08;2.15;;;1.10;;
39674;SDS011;27790;50.840;4.386;2024-03-23T11:45:39;5.13;;;1.63;;
39674;SDS011;27790;50.840;4.386;2024-03-23T11:48:07;5.53;;;1.40;;
39674;SDS011;27790;50.840;4.386;2024-03-23T11:50:41;6.55;;;1.58;;
39674;SDS011;27790;50.840;4.386;2024-03-23T11:53:17;9.45;;;2.05;;
39674;SDS011;27790;50.840;4.386;2024-03-23T11:58:13;5.93;;;1.40;;
39674;SDS011;27790;50.840;4.386;2024-03-23T12:00:39;15.00;;;1.48;;
39674;SDS011;27790;50.840;4.386;2024-03-23T12:03:05;5.18;;;2.10;;
39674;SDS011;27790;50.840;4.386;2024-03-23T12:05:31;5.72;;;1.88;;
39674;SDS011;27790;50.840;4.386;2024-03-23T12:10:52;8.30;;;2.03;;
39674;SDS011;27790;50.840;4.386;2024-03-23T12:13:29;8.33;;;1.87;;
39674;SDS011;27790;50.840;4.386;2024-03-23T12:15:54;7.43;;;2.58;;
39674;SDS011;27790;50.840;4.386;2024-03-23T12:18:23;5.97;;;1.30;;
39674;SDS011;27790;50.840;4.386;2024-03-23T12:20:49;6.47;;;1.75;;
39674;SDS011;27790;50.840;4.386;2024-03-23T12:23:15;8.05;;;1.88;;
39674;SDS011;27790;50.840;4.386;2024-03-23T12:25:41;6.95;;;1.20;;
39674;SDS011;27790;50.840;4.386;2024-03-23T12:28:06;2.00;;;0.88;;
39674;SDS011;27790;50.840;4.386;2024-03-23T12:30:36;3.08;;;1.20;;
39674;SDS011;27790;50.840;4.386;2024-03-23T12:33:04;2.30;;;0.90;;
39674;SDS011;27790;50.840;4.386;2024-03-23T12:35:30;6.53;;;1.00;;
39674;SDS011;27790;50.840;4.386;2024-03-23T12:37:56;31.25;;;2.10;;
39674;SDS011;27790;50.840;4.386;2024-03-23T12:40:22;10.65;;;1.25;;
39674;SDS011;27790;50.840;4.386;2024-03-23T12:42:48;4.20;;;1.33;;
39674;SDS011;27790;50.840;4.386;2024-03-23T12:45:13;6.75;;;1.30;;
39674;SDS011;27790;50.840;4.386;2024-03-23T12:47:39;38.97;;;1.85;;
39674;SDS011;27790;50.840;4.386;2024-03-23T12:50:05;6.55;;;1.08;;
39674;SDS011;27790;50.840;4.386;2024-03-23T12:52:31;10.48;;;1.50;;
39674;SDS011;27790;50.840;4.386;2024-03-23T12:54:57;6.63;;;1.65;;
39674;SDS011;27790;50.840;4.386;2024-03-23T12:57:23;5.20;;;2.03;;
39674;SDS011;27790;50.840;4.386;2024-03-23T12:59:50;6.35;;;1.30;;
39674;SDS011;27790;50.840;4.386;2024-03-23T13:02:21;7.40;;;1.00;;
39674;SDS011;27790;50.840;4.386;2024-03-23T13:04:50;5.95;;;1.10;;
39674;SDS011;27790;50.840;4.386;2024-03-23T13:07:19;2.63;;;1.00;;
39674;SDS011;27790;50.840;4.386;2024-03-23T13:09:45;4.32;;;1.05;;
39674;SDS011;27790;50.840;4.386;2024-03-23T13:12:11;2.60;;;1.15;;
39674;SDS011;27790;50.840;4.386;2024-03-23T13:14:39;9.90;;;1.77;;
39674;SDS011;27790;50.840;4.386;2024-03-23T13:17:05;5.32;;;1.15;;
39674;SDS011;27790;50.840;4.386;2024-03-23T13:19:32;1.85;;;1.10;;
39674;SDS011;27790;50.840;4.386;2024-03-23T13:21:59;7.82;;;0.98;;
39674;SDS011;27790;50.840;4.386;2024-03-23T13:24:26;5.63;;;1.55;;
39674;SDS011;27790;50.840;4.386;2024-03-23T13:26:52;4.25;;;1.35;;
39674;SDS011;27790;50.840;4.386;2024-03-23T13:29:19;7.35;;;0.95;;
39674;SDS011;27790;50.840;4.386;2024-03-23T13:31:45;5.93;;;1.00;;
39674;SDS011;27790;50.840;4.386;2024-03-23T13:34:14;6.13;;;1.02;;
39674;SDS011;27790;50.840;4.386;2024-03-23T13:36:41;2.22;;;0.75;;
39674;SDS011;27790;50.840;4.386;2024-03-23T13:39:08;6.40;;;1.30;;
39674;SDS011;27790;50.840;4.386;2024-03-23T13:41:39;7.07;;;1.13;;
39674;SDS011;27790;50.840;4.386;2024-03-23T13:44:10;4.65;;;0.90;;
39674;SDS011;27790;50.840;4.386;2024-03-23T13:46:37;5.97;;;1.02;;
39674;SDS011;27790;50.840;4.386;2024-03-23T13:51:46;4.53;;;1.52;;
39674;SDS011;27790;50.840;4.386;2024-03-23T13:54:12;3.72;;;1.05;;
39674;SDS011;27790;50.840;4.386;2024-03-23T13:56:37;3.58;;;1.30;;
39674;SDS011;27790;50.840;4.386;2024-03-23T13:59:03;1.15;;;0.70;;
39674;SDS011;27790;50.840;4.386;2024-03-23T14:01:28;3.25;;;1.00;;
39674;SDS011;27790;50.840;4.386;2024-03-23T14:03:54;2.85;;;1.63;;
39674;SDS011;27790;50.840;4.386;2024-03-23T14:06:20;5.60;;;1.10;;
39674;SDS011;27790;50.840;4.386;2024-03-23T14:08:46;5.65;;;1.13;;
39674;SDS011;27790;50.840;4.386;2024-03-23T14:11:14;2.70;;;1.27;;
39674;SDS011;27790;50.840;4.386;2024-03-23T14:13:39;5.57;;;0.90;;
39674;SDS011;27790;50.840;4.386;2024-03-23T14:16:05;7.75;;;1.75;;
39674;SDS011;27790;50.840;4.386;2024-03-23T14:18:31;11.38;;;1.45;;
39674;SDS011;27790;50.840;4.386;2024-03-23T14:20:57;1.35;;;0.77;;
39674;SDS011;27790;50.840;4.386;2024-03-23T14:23:28;4.10;;;1.42;;
39674;SDS011;27790;50.840;4.386;2024-03-23T14:25:54;4.72;;;1.45;;
39674;SDS011;27790;50.840;4.386;2024-03-23T14:28:21;6.22;;;1.80;;
39674;SDS011;27790;50.840;4.386;2024-03-23T14:30:50;6.97;;;1.50;;
39674;SDS011;27790;50.840;4.386;2024-03-23T14:33:16;11.07;;;1.58;;
39674;SDS011;27790;50.840;4.386;2024-03-23T14:35:43;12.00;;;1.13;;
39674;SDS011;27790;50.840;4.386;2024-03-23T14:38:09;7.82;;;2.22;;
39674;SDS011;27790;50.840;4.386;2024-03-23T14:40:34;4.85;;;1.30;;
39674;SDS011;27790;50.840;4.386;2024-03-23T14:43:00;5.70;;;1.00;;
39674;SDS011;27790;50.840;4.386;2024-03-23T14:45:27;5.88;;;1.30;;
39674;SDS011;27790;50.840;4.386;2024-03-23T14:47:53;6.60;;;1.38;;
39674;SDS011;27790;50.840;4.386;2024-03-23T14:50:18;5.95;;;1.10;;
39674;SDS011;27790;50.840;4.386;2024-03-23T14:52:44;5.22;;;1.40;;
39674;SDS011;27790;50.840;4.386;2024-03-23T14:55:10;7.50;;;1.20;;
39674;SDS011;27790;50.840;4.386;2024-03-23T14:57:36;4.07;;;1.67;;
39674;SDS011;27790;50.840;4.386;2024-03-23T15:00:04;5.53;;;1.10;;
39674;SDS011;27790;50.840;4.386;2024-03-23T15:02:35;7.05;;;1.77;;
39674;SDS011;27790;50.840;4.386;2024-03-23T15:05:01;3.28;;;1.30;;
39674;SDS011;27790;50.840;4.386;2024-03-23T15:07:29;5.28;;;1.10;;
39674;SDS011;27790;50.840;4.386;2024-03-23T15:09:55;6.30;;;1.90;;
39674;SDS011;27790;50.840;4.386;2024-03-23T15:12:21;6.35;;;1.33;;
39674;SDS011;27790;50.840;4.386;2024-03-23T15:14:46;3.83;;;1.45;;
39674;SDS011;27790;50.840;4.386;2024-03-23T15:17:12;9.40;;;1.98;;
39674;SDS011;27790;50.840;4.386;2024-03-23T15:19:38;2.58;;;1.10;;
39674;SDS011;27790;50.840;4.386;2024-03-23T15:22:04;5.03;;;1.42;;
39674;SDS011;27790;50.840;4.386;2024-03-23T15:24:29;7.60;;;1.65;;
39674;SDS011;27790;50.840;4.386;2024-03-23T15:26:56;5.18;;;1.65;;
39674;SDS011;27790;50.840;4.386;2024-03-23T15:29:21;4.00;;;1.00;;
39674;SDS011;27790;50.840;4.386;2024-03-23T15:31:48;9.70;;;2.38;;
39674;SDS011;27790;50.840;4.386;2024-03-23T15:34:17;6.95;;;1.27;;
39674;SDS011;27790;50.840;4.386;2024-03-23T15:36:44;6.65;;;1.40;;
39674;SDS011;27790;50.840;4.386;2024-03-23T15:39:10;8.30;;;1.25;;
39674;SDS011;27790;50.840;4.386;2024-03-23T15:41:35;7.53;;;1.67;;
39674;SDS011;27790;50.840;4.386;2024-03-23T15:44:02;7.03;;;1.17;;
39674;SDS011;27790;50.840;4.386;2024-03-23T15:46:27;5.63;;;1.52;;
39674;SDS011;27790;50.840;4.386;2024-03-23T15:48:53;4.20;;;1.20;;
39674;SDS011;27790;50.840;4.386;2024-03-23T15:51:19;6.95;;;1.70;;